Brantwood, Wisconsin
Current Conditions -  °F | °C
As of 4:55 AM on Wednesday 22 Oct 2014 (Local Time) from KPBH Reporting Station
Clear Clear  
Wind Chill: 24°   Ceiling: Unl
Heat Index: 29°   Visibility: 10mi
Dew Point: 28°   Wind: 5mph
Humidity: 98%   Direction: 90°E
Pressure: 30.27"   Gusts: NA
Location:  45.56°N, 90.12°W
Report Text: KPBH 220955Z AUTO 09004KT 10SM CLR M02/M02 A3027 RMK AO2 T10171020
Loading
Personal Weather Stations






























Interactive Weather Map
Tropical Storm Tracking
New forecast layout! Learn more

10-Day Weather Forecast

Advertisements
Track Severe Weather on mobile